KSAT - San Antonio Intl, TX, US

Issued at 1307 UTC 20 Oct 2021
Updated at 1412 UTC 20 Oct 2021
Potential Impact None Slight Moderate High
Time1351Z 20/15Z 20/16Z 20/17Z 20/18Z 20/19Z 20/20Z 20/21Z 20/22Z 20/23Z 21/00Z 21/01Z 21/02Z 21/03Z>>
Type OBS PRVL PRVL PRVL PRVL PRVL PRVL PRVL PRVL PRVL PRVL PRVL PRVL PRVL
VIS 10 >6 >6 >6 >6 >6 >6 >6 >6 >6 >6 >6 >6 >6
CIG 25 -- -- -- -- -- -- -- -- -- -- -- -- --
Cover BKN SCT SCT SCT SCT SCT SCT SCT SCT SCT SCT SCT SCT SCT
FltCat MVFR VFR VFR VFR VFR VFR VFR VFR VFR VFR VFR VFR VFR VFR
WX -- -- -- -- -- -- -- -- -- -- -- -- -- --
WDir VRB 110 110 150 150 150 150 150 150 150 150 150 150 150
WSpd 0 3 3 5 5 5 5 5 5 5 5 5 5 5
WGst -- -- -- -- -- -- -- -- -- -- -- -- -- --
Raw TAF
KSAT 201307Z 2013/2118 11003KT P6SM SCT015 SCT040
  FM201700 15005KT P6SM SCT040
  FM210900 VRB02KT P6SM FEW015


Raw METAR
KSAT 201351Z 00000KT 10SM BKN025 BKN250 21/19 A3010 RMK AO2 SLP177 T02110189
KSAT 201339Z 11003KT 10SM BKN025 BKN250 21/19 A3010 RMK AO2 T02060189
KSAT 201251Z 11003KT 10SM SCT033 BKN250 20/18 A3008 RMK AO2 SLP172 T02000183
KSAT 201158Z 10005KT 10SM OVC030 21/19 A3008 RMK AO2 T02060189
KSAT 201151Z 10004KT 10SM BKN023 OVC037 21/19 A3008 RMK AO2 SLP169 T02060189 10206 20189 53005

METAR Board
Radar Display
Forecast Discussion
For situational awareness. Not to be used for flight planning purposes.